sensor_id;sensor_type;location;lat;lon;timestamp;P1;durP1;ratioP1;P2;durP2;ratioP2
60368;SDS011;46208;44.634;10.492;2022-10-16T00:01:31;5.25;;;3.30;;
60368;SDS011;46208;44.634;10.492;2022-10-16T00:04:34;3.85;;;2.45;;
60368;SDS011;46208;44.634;10.492;2022-10-16T00:07:38;4.88;;;3.00;;
60368;SDS011;46208;44.634;10.492;2022-10-16T00:10:41;4.75;;;2.92;;
60368;SDS011;46208;44.634;10.492;2022-10-16T00:13:44;3.40;;;2.22;;
60368;SDS011;46208;44.634;10.492;2022-10-16T00:16:48;4.65;;;3.28;;
60368;SDS011;46208;44.634;10.492;2022-10-16T00:19:51;5.10;;;2.88;;
60368;SDS011;46208;44.634;10.492;2022-10-16T00:23:13;3.25;;;2.55;;
60368;SDS011;46208;44.634;10.492;2022-10-16T00:26:16;8.32;;;5.10;;
60368;SDS011;46208;44.634;10.492;2022-10-16T00:29:20;6.43;;;3.78;;
60368;SDS011;46208;44.634;10.492;2022-10-16T00:32:23;7.35;;;3.35;;
60368;SDS011;46208;44.634;10.492;2022-10-16T00:35:26;8.25;;;4.43;;
60368;SDS011;46208;44.634;10.492;2022-10-16T00:38:31;8.85;;;3.72;;
60368;SDS011;46208;44.634;10.492;2022-10-16T00:41:34;7.40;;;4.18;;
60368;SDS011;46208;44.634;10.492;2022-10-16T00:44:42;9.05;;;4.65;;
60368;SDS011;46208;44.634;10.492;2022-10-16T00:47:46;5.55;;;3.30;;
60368;SDS011;46208;44.634;10.492;2022-10-16T00:50:52;7.30;;;3.35;;
60368;SDS011;46208;44.634;10.492;2022-10-16T00:53:56;7.72;;;3.28;;
60368;SDS011;46208;44.634;10.492;2022-10-16T00:57:01;7.38;;;4.35;;
60368;SDS011;46208;44.634;10.492;2022-10-16T01:00:07;5.07;;;3.13;;
60368;SDS011;46208;44.634;10.492;2022-10-16T01:03:43;5.70;;;3.90;;
60368;SDS011;46208;44.634;10.492;2022-10-16T01:13:06;5.20;;;3.45;;
60368;SDS011;46208;44.634;10.492;2022-10-16T01:19:36;7.47;;;3.35;;
60368;SDS011;46208;44.634;10.492;2022-10-16T01:29:30;6.22;;;2.80;;
60368;SDS011;46208;44.634;10.492;2022-10-16T01:32:40;6.80;;;3.10;;
60368;SDS011;46208;44.634;10.492;2022-10-16T01:35:51;3.45;;;2.33;;
60368;SDS011;46208;44.634;10.492;2022-10-16T01:38:56;3.33;;;2.63;;
60368;SDS011;46208;44.634;10.492;2022-10-16T01:42:03;3.63;;;3.25;;
60368;SDS011;46208;44.634;10.492;2022-10-16T01:45:07;5.20;;;3.08;;
60368;SDS011;46208;44.634;10.492;2022-10-16T01:48:16;2.13;;;1.92;;
60368;SDS011;46208;44.634;10.492;2022-10-16T01:51:20;4.30;;;2.67;;
60368;SDS011;46208;44.634;10.492;2022-10-16T01:54:27;4.45;;;2.50;;
60368;SDS011;46208;44.634;10.492;2022-10-16T01:57:32;3.35;;;2.95;;
60368;SDS011;46208;44.634;10.492;2022-10-16T02:00:39;4.78;;;2.45;;
60368;SDS011;46208;44.634;10.492;2022-10-16T02:03:44;5.53;;;2.78;;
60368;SDS011;46208;44.634;10.492;2022-10-16T02:06:49;4.07;;;1.98;;
60368;SDS011;46208;44.634;10.492;2022-10-16T02:09:52;6.03;;;2.45;;
60368;SDS011;46208;44.634;10.492;2022-10-16T02:13:08;3.10;;;2.50;;
60368;SDS011;46208;44.634;10.492;2022-10-16T02:16:13;8.88;;;3.25;;
60368;SDS011;46208;44.634;10.492;2022-10-16T02:19:17;4.13;;;2.80;;
60368;SDS011;46208;44.634;10.492;2022-10-16T02:22:38;5.43;;;2.40;;
60368;SDS011;46208;44.634;10.492;2022-10-16T02:25:42;5.82;;;2.50;;
60368;SDS011;46208;44.634;10.492;2022-10-16T02:28:48;4.70;;;3.33;;
60368;SDS011;46208;44.634;10.492;2022-10-16T02:31:57;6.20;;;2.97;;
60368;SDS011;46208;44.634;10.492;2022-10-16T02:35:03;4.65;;;2.80;;
60368;SDS011;46208;44.634;10.492;2022-10-16T02:38:07;3.63;;;2.63;;
60368;SDS011;46208;44.634;10.492;2022-10-16T02:41:11;6.20;;;2.83;;
60368;SDS011;46208;44.634;10.492;2022-10-16T02:44:15;5.22;;;2.85;;
60368;SDS011;46208;44.634;10.492;2022-10-16T02:47:18;4.60;;;2.70;;
60368;SDS011;46208;44.634;10.492;2022-10-16T02:50:21;6.10;;;2.88;;
60368;SDS011;46208;44.634;10.492;2022-10-16T02:53:25;7.03;;;3.00;;
60368;SDS011;46208;44.634;10.492;2022-10-16T02:56:28;3.65;;;1.95;;
60368;SDS011;46208;44.634;10.492;2022-10-16T02:59:32;4.50;;;2.15;;
60368;SDS011;46208;44.634;10.492;2022-10-16T03:02:36;4.68;;;2.50;;
60368;SDS011;46208;44.634;10.492;2022-10-16T03:05:39;3.95;;;2.28;;
60368;SDS011;46208;44.634;10.492;2022-10-16T03:08:42;4.20;;;2.15;;
60368;SDS011;46208;44.634;10.492;2022-10-16T03:11:45;3.65;;;2.20;;
60368;SDS011;46208;44.634;10.492;2022-10-16T03:14:49;4.90;;;3.00;;
60368;SDS011;46208;44.634;10.492;2022-10-16T03:17:52;4.38;;;2.53;;
60368;SDS011;46208;44.634;10.492;2022-10-16T03:20:55;6.95;;;2.63;;
60368;SDS011;46208;44.634;10.492;2022-10-16T03:23:58;5.97;;;3.92;;
60368;SDS011;46208;44.634;10.492;2022-10-16T03:27:02;4.32;;;3.20;;
60368;SDS011;46208;44.634;10.492;2022-10-16T03:30:05;4.95;;;2.75;;
60368;SDS011;46208;44.634;10.492;2022-10-16T03:33:08;4.88;;;2.58;;
60368;SDS011;46208;44.634;10.492;2022-10-16T03:36:11;4.70;;;2.58;;
60368;SDS011;46208;44.634;10.492;2022-10-16T03:39:15;4.50;;;2.78;;
60368;SDS011;46208;44.634;10.492;2022-10-16T03:42:18;6.90;;;3.42;;
60368;SDS011;46208;44.634;10.492;2022-10-16T03:45:22;2.65;;;2.45;;
60368;SDS011;46208;44.634;10.492;2022-10-16T03:48:25;8.70;;;2.40;;
60368;SDS011;46208;44.634;10.492;2022-10-16T03:51:28;5.05;;;2.85;;
60368;SDS011;46208;44.634;10.492;2022-10-16T03:54:31;3.60;;;2.78;;
60368;SDS011;46208;44.634;10.492;2022-10-16T03:57:34;5.82;;;2.88;;
60368;SDS011;46208;44.634;10.492;2022-10-16T04:00:41;5.63;;;3.05;;
60368;SDS011;46208;44.634;10.492;2022-10-16T04:03:44;5.50;;;3.55;;
60368;SDS011;46208;44.634;10.492;2022-10-16T04:06:47;4.22;;;2.83;;
60368;SDS011;46208;44.634;10.492;2022-10-16T04:09:50;4.70;;;2.90;;
60368;SDS011;46208;44.634;10.492;2022-10-16T04:12:55;4.05;;;2.72;;
60368;SDS011;46208;44.634;10.492;2022-10-16T04:15:58;4.35;;;2.65;;
60368;SDS011;46208;44.634;10.492;2022-10-16T04:19:03;3.20;;;2.40;;
60368;SDS011;46208;44.634;10.492;2022-10-16T04:22:06;6.43;;;2.80;;
60368;SDS011;46208;44.634;10.492;2022-10-16T04:25:10;6.50;;;2.97;;
60368;SDS011;46208;44.634;10.492;2022-10-16T04:28:14;4.30;;;2.83;;
60368;SDS011;46208;44.634;10.492;2022-10-16T04:31:17;5.80;;;2.65;;
60368;SDS011;46208;44.634;10.492;2022-10-16T04:34:20;2.63;;;2.08;;
60368;SDS011;46208;44.634;10.492;2022-10-16T04:37:24;4.30;;;2.88;;
60368;SDS011;46208;44.634;10.492;2022-10-16T04:40:28;3.60;;;2.50;;
60368;SDS011;46208;44.634;10.492;2022-10-16T04:43:32;4.63;;;2.63;;
60368;SDS011;46208;44.634;10.492;2022-10-16T04:46:36;3.90;;;2.10;;
60368;SDS011;46208;44.634;10.492;2022-10-16T04:49:39;3.97;;;2.55;;
60368;SDS011;46208;44.634;10.492;2022-10-16T04:52:42;5.80;;;3.88;;
60368;SDS011;46208;44.634;10.492;2022-10-16T04:55:45;9.38;;;3.33;;
60368;SDS011;46208;44.634;10.492;2022-10-16T04:58:48;5.85;;;3.53;;
60368;SDS011;46208;44.634;10.492;2022-10-16T05:01:52;4.53;;;2.85;;
60368;SDS011;46208;44.634;10.492;2022-10-16T05:04:55;5.10;;;3.33;;
60368;SDS011;46208;44.634;10.492;2022-10-16T05:07:58;4.40;;;2.85;;
60368;SDS011;46208;44.634;10.492;2022-10-16T05:11:01;3.97;;;3.33;;
60368;SDS011;46208;44.634;10.492;2022-10-16T05:14:05;5.05;;;3.67;;
60368;SDS011;46208;44.634;10.492;2022-10-16T05:17:09;4.63;;;2.80;;
60368;SDS011;46208;44.634;10.492;2022-10-16T05:20:12;5.20;;;3.55;;
60368;SDS011;46208;44.634;10.492;2022-10-16T05:23:15;7.13;;;3.60;;
60368;SDS011;46208;44.634;10.492;2022-10-16T05:26:18;5.65;;;3.17;;
60368;SDS011;46208;44.634;10.492;2022-10-16T05:29:21;11.65;;;4.45;;
60368;SDS011;46208;44.634;10.492;2022-10-16T05:32:25;4.57;;;3.55;;
60368;SDS011;46208;44.634;10.492;2022-10-16T05:35:29;7.18;;;3.15;;
60368;SDS011;46208;44.634;10.492;2022-10-16T05:38:32;9.27;;;3.17;;
60368;SDS011;46208;44.634;10.492;2022-10-16T05:41:36;5.22;;;3.65;;
60368;SDS011;46208;44.634;10.492;2022-10-16T05:44:39;3.22;;;2.70;;
60368;SDS011;46208;44.634;10.492;2022-10-16T05:47:42;5.55;;;3.47;;
60368;SDS011;46208;44.634;10.492;2022-10-16T05:50:45;4.70;;;3.38;;
60368;SDS011;46208;44.634;10.492;2022-10-16T05:53:48;4.10;;;2.83;;
60368;SDS011;46208;44.634;10.492;2022-10-16T05:56:52;6.32;;;4.10;;
60368;SDS011;46208;44.634;10.492;2022-10-16T05:59:55;5.00;;;2.70;;
60368;SDS011;46208;44.634;10.492;2022-10-16T06:02:58;6.32;;;3.92;;
60368;SDS011;46208;44.634;10.492;2022-10-16T06:06:18;4.22;;;2.95;;
60368;SDS011;46208;44.634;10.492;2022-10-16T06:09:22;4.80;;;2.90;;
60368;SDS011;46208;44.634;10.492;2022-10-16T06:12:26;4.65;;;3.63;;
60368;SDS011;46208;44.634;10.492;2022-10-16T06:15:29;3.35;;;2.63;;
60368;SDS011;46208;44.634;10.492;2022-10-16T06:18:32;7.28;;;3.97;;
60368;SDS011;46208;44.634;10.492;2022-10-16T06:21:36;8.10;;;3.20;;
60368;SDS011;46208;44.634;10.492;2022-10-16T06:24:39;5.47;;;3.47;;
60368;SDS011;46208;44.634;10.492;2022-10-16T06:27:42;10.10;;;4.82;;
60368;SDS011;46208;44.634;10.492;2022-10-16T06:30:45;4.18;;;3.10;;
60368;SDS011;46208;44.634;10.492;2022-10-16T06:33:51;5.90;;;3.85;;
60368;SDS011;46208;44.634;10.492;2022-10-16T06:36:55;6.60;;;3.40;;
60368;SDS011;46208;44.634;10.492;2022-10-16T06:39:58;5.43;;;3.78;;
60368;SDS011;46208;44.634;10.492;2022-10-16T06:43:03;5.13;;;2.67;;
60368;SDS011;46208;44.634;10.492;2022-10-16T06:46:06;6.28;;;3.58;;
60368;SDS011;46208;44.634;10.492;2022-10-16T06:49:13;4.15;;;3.30;;
60368;SDS011;46208;44.634;10.492;2022-10-16T06:52:16;4.93;;;3.17;;
60368;SDS011;46208;44.634;10.492;2022-10-16T06:55:20;5.97;;;4.13;;
60368;SDS011;46208;44.634;10.492;2022-10-16T06:58:23;4.30;;;2.80;;
60368;SDS011;46208;44.634;10.492;2022-10-16T07:01:27;7.63;;;3.53;;
60368;SDS011;46208;44.634;10.492;2022-10-16T07:04:30;8.95;;;4.10;;
60368;SDS011;46208;44.634;10.492;2022-10-16T07:07:34;8.57;;;4.78;;
60368;SDS011;46208;44.634;10.492;2022-10-16T07:10:37;7.60;;;4.40;;
60368;SDS011;46208;44.634;10.492;2022-10-16T07:13:41;7.10;;;4.47;;
60368;SDS011;46208;44.634;10.492;2022-10-16T07:16:45;8.73;;;5.57;;
60368;SDS011;46208;44.634;10.492;2022-10-16T07:19:48;6.07;;;4.15;;
60368;SDS011;46208;44.634;10.492;2022-10-16T07:22:52;6.32;;;3.90;;
60368;SDS011;46208;44.634;10.492;2022-10-16T07:25:55;4.75;;;3.47;;
60368;SDS011;46208;44.634;10.492;2022-10-16T07:28:59;7.10;;;4.35;;
60368;SDS011;46208;44.634;10.492;2022-10-16T07:32:03;5.93;;;3.95;;
60368;SDS011;46208;44.634;10.492;2022-10-16T07:35:06;7.07;;;4.53;;
60368;SDS011;46208;44.634;10.492;2022-10-16T07:38:09;8.63;;;4.50;;
60368;SDS011;46208;44.634;10.492;2022-10-16T07:41:14;6.75;;;4.95;;
60368;SDS011;46208;44.634;10.492;2022-10-16T07:44:17;7.32;;;4.18;;
60368;SDS011;46208;44.634;10.492;2022-10-16T07:47:20;7.32;;;3.53;;
60368;SDS011;46208;44.634;10.492;2022-10-16T07:50:24;6.80;;;3.75;;
60368;SDS011;46208;44.634;10.492;2022-10-16T07:53:28;5.78;;;3.83;;
60368;SDS011;46208;44.634;10.492;2022-10-16T07:56:31;5.97;;;3.75;;
60368;SDS011;46208;44.634;10.492;2022-10-16T07:59:35;7.72;;;3.63;;
60368;SDS011;46208;44.634;10.492;2022-10-16T08:02:39;5.93;;;3.30;;
60368;SDS011;46208;44.634;10.492;2022-10-16T08:05:42;6.78;;;4.45;;
60368;SDS011;46208;44.634;10.492;2022-10-16T08:08:45;6.72;;;4.13;;
60368;SDS011;46208;44.634;10.492;2022-10-16T08:11:49;8.88;;;4.75;;
60368;SDS011;46208;44.634;10.492;2022-10-16T08:14:52;8.20;;;4.03;;
60368;SDS011;46208;44.634;10.492;2022-10-16T08:17:57;8.93;;;4.82;;
60368;SDS011;46208;44.634;10.492;2022-10-16T08:21:00;9.38;;;4.43;;
60368;SDS011;46208;44.634;10.492;2022-10-16T08:24:04;7.80;;;5.25;;
60368;SDS011;46208;44.634;10.492;2022-10-16T08:27:07;8.43;;;5.30;;
60368;SDS011;46208;44.634;10.492;2022-10-16T08:30:12;8.15;;;4.85;;
60368;SDS011;46208;44.634;10.492;2022-10-16T08:33:15;7.45;;;5.15;;
60368;SDS011;46208;44.634;10.492;2022-10-16T08:36:18;9.48;;;4.70;;
60368;SDS011;46208;44.634;10.492;2022-10-16T08:39:21;9.52;;;4.90;;
60368;SDS011;46208;44.634;10.492;2022-10-16T08:42:34;9.50;;;4.85;;
60368;SDS011;46208;44.634;10.492;2022-10-16T08:48:51;6.28;;;4.38;;
60368;SDS011;46208;44.634;10.492;2022-10-16T08:51:54;9.73;;;5.93;;
60368;SDS011;46208;44.634;10.492;2022-10-16T08:54:59;8.55;;;4.90;;
60368;SDS011;46208;44.634;10.492;2022-10-16T08:58:05;8.73;;;4.90;;
60368;SDS011;46208;44.634;10.492;2022-10-16T09:01:13;9.85;;;5.22;;
60368;SDS011;46208;44.634;10.492;2022-10-16T09:07:26;10.63;;;5.47;;
60368;SDS011;46208;44.634;10.492;2022-10-16T09:10:38;9.90;;;4.90;;
60368;SDS011;46208;44.634;10.492;2022-10-16T09:13:48;9.43;;;5.63;;
60368;SDS011;46208;44.634;10.492;2022-10-16T09:17:00;11.18;;;5.85;;
60368;SDS011;46208;44.634;10.492;2022-10-16T09:26:16;7.78;;;4.85;;
60368;SDS011;46208;44.634;10.492;2022-10-16T09:29:21;9.60;;;5.05;;
60368;SDS011;46208;44.634;10.492;2022-10-16T09:32:25;7.70;;;4.07;;
60368;SDS011;46208;44.634;10.492;2022-10-16T09:38:43;18.58;;;5.40;;
60368;SDS011;46208;44.634;10.492;2022-10-16T09:41:47;9.35;;;5.43;;
60368;SDS011;46208;44.634;10.492;2022-10-16T09:44:51;7.80;;;5.22;;
60368;SDS011;46208;44.634;10.492;2022-10-16T09:47:54;9.13;;;4.60;;
60368;SDS011;46208;44.634;10.492;2022-10-16T09:51:02;8.98;;;5.13;;
60368;SDS011;46208;44.634;10.492;2022-10-16T09:57:12;7.43;;;5.30;;
60368;SDS011;46208;44.634;10.492;2022-10-16T10:00:17;9.88;;;5.53;;
60368;SDS011;46208;44.634;10.492;2022-10-16T10:03:40;9.68;;;5.43;;
60368;SDS011;46208;44.634;10.492;2022-10-16T10:09:47;7.35;;;4.82;;
60368;SDS011;46208;44.634;10.492;2022-10-16T10:12:51;10.38;;;5.40;;
60368;SDS011;46208;44.634;10.492;2022-10-16T10:15:55;9.57;;;5.55;;
60368;SDS011;46208;44.634;10.492;2022-10-16T10:18:59;9.55;;;5.63;;
60368;SDS011;46208;44.634;10.492;2022-10-16T10:22:12;12.27;;;4.97;;
60368;SDS011;46208;44.634;10.492;2022-10-16T10:25:22;7.05;;;4.82;;
60368;SDS011;46208;44.634;10.492;2022-10-16T10:31:58;9.05;;;4.88;;
60368;SDS011;46208;44.634;10.492;2022-10-16T10:35:07;12.35;;;6.35;;
60368;SDS011;46208;44.634;10.492;2022-10-16T10:41:44;13.65;;;6.63;;
60368;SDS011;46208;44.634;10.492;2022-10-16T10:57:34;9.48;;;5.35;;
60368;SDS011;46208;44.634;10.492;2022-10-16T11:07:02;8.48;;;5.20;;
60368;SDS011;46208;44.634;10.492;2022-10-16T11:10:15;8.05;;;5.95;;
60368;SDS011;46208;44.634;10.492;2022-10-16T11:13:24;11.27;;;5.80;;
60368;SDS011;46208;44.634;10.492;2022-10-16T11:16:35;11.43;;;5.88;;
60368;SDS011;46208;44.634;10.492;2022-10-16T11:19:45;10.88;;;5.50;;
60368;SDS011;46208;44.634;10.492;2022-10-16T11:22:53;10.65;;;6.53;;
60368;SDS011;46208;44.634;10.492;2022-10-16T11:25:59;13.68;;;6.47;;
60368;SDS011;46208;44.634;10.492;2022-10-16T11:29:04;9.00;;;5.07;;
60368;SDS011;46208;44.634;10.492;2022-10-16T11:32:13;9.38;;;5.57;;
60368;SDS011;46208;44.634;10.492;2022-10-16T11:41:55;12.75;;;5.85;;
60368;SDS011;46208;44.634;10.492;2022-10-16T11:48:12;8.48;;;5.45;;
60368;SDS011;46208;44.634;10.492;2022-10-16T11:51:21;10.45;;;6.32;;
60368;SDS011;46208;44.634;10.492;2022-10-16T11:54:34;10.07;;;5.70;;
60368;SDS011;46208;44.634;10.492;2022-10-16T11:57:41;6.97;;;5.65;;
60368;SDS011;46208;44.634;10.492;2022-10-16T12:00:51;10.38;;;6.43;;
60368;SDS011;46208;44.634;10.492;2022-10-16T12:03:59;9.10;;;5.57;;
60368;SDS011;46208;44.634;10.492;2022-10-16T12:07:08;6.55;;;4.70;;
60368;SDS011;46208;44.634;10.492;2022-10-16T12:10:19;13.75;;;4.57;;
60368;SDS011;46208;44.634;10.492;2022-10-16T12:16:33;10.60;;;5.50;;
60368;SDS011;46208;44.634;10.492;2022-10-16T12:19:36;8.55;;;4.28;;
60368;SDS011;46208;44.634;10.492;2022-10-16T12:22:50;5.22;;;4.00;;
60368;SDS011;46208;44.634;10.492;2022-10-16T12:25:57;9.52;;;4.75;;
60368;SDS011;46208;44.634;10.492;2022-10-16T12:29:14;8.77;;;4.57;;
60368;SDS011;46208;44.634;10.492;2022-10-16T12:32:32;7.93;;;4.80;;
60368;SDS011;46208;44.634;10.492;2022-10-16T12:35:42;7.35;;;4.18;;
60368;SDS011;46208;44.634;10.492;2022-10-16T12:42:01;7.22;;;4.13;;
60368;SDS011;46208;44.634;10.492;2022-10-16T12:48:27;7.22;;;4.05;;
60368;SDS011;46208;44.634;10.492;2022-10-16T12:54:35;4.43;;;3.17;;
60368;SDS011;46208;44.634;10.492;2022-10-16T13:01:07;8.45;;;3.90;;
60368;SDS011;46208;44.634;10.492;2022-10-16T13:04:21;5.97;;;4.18;;
60368;SDS011;46208;44.634;10.492;2022-10-16T13:07:46;7.95;;;4.43;;
60368;SDS011;46208;44.634;10.492;2022-10-16T13:24:07;6.90;;;4.63;;
60368;SDS011;46208;44.634;10.492;2022-10-16T13:30:18;7.40;;;5.22;;
60368;SDS011;46208;44.634;10.492;2022-10-16T13:33:39;7.18;;;5.00;;
60368;SDS011;46208;44.634;10.492;2022-10-16T13:36:47;11.68;;;4.70;;
60368;SDS011;46208;44.634;10.492;2022-10-16T13:39:50;7.85;;;4.65;;
60368;SDS011;46208;44.634;10.492;2022-10-16T13:42:54;8.15;;;4.63;;
60368;SDS011;46208;44.634;10.492;2022-10-16T13:45:59;8.73;;;5.13;;
60368;SDS011;46208;44.634;10.492;2022-10-16T13:49:04;6.60;;;4.50;;
60368;SDS011;46208;44.634;10.492;2022-10-16T13:52:15;7.97;;;4.72;;
60368;SDS011;46208;44.634;10.492;2022-10-16T13:55:19;7.65;;;4.25;;
60368;SDS011;46208;44.634;10.492;2022-10-16T13:58:23;5.32;;;4.35;;
60368;SDS011;46208;44.634;10.492;2022-10-16T14:01:27;8.50;;;4.68;;
60368;SDS011;46208;44.634;10.492;2022-10-16T14:04:32;6.28;;;4.70;;
60368;SDS011;46208;44.634;10.492;2022-10-16T14:07:36;9.35;;;4.90;;
60368;SDS011;46208;44.634;10.492;2022-10-16T14:10:39;8.25;;;4.32;;
60368;SDS011;46208;44.634;10.492;2022-10-16T14:13:43;6.55;;;4.15;;
60368;SDS011;46208;44.634;10.492;2022-10-16T14:16:47;7.70;;;4.13;;
60368;SDS011;46208;44.634;10.492;2022-10-16T14:19:51;6.53;;;4.22;;
60368;SDS011;46208;44.634;10.492;2022-10-16T14:23:00;6.63;;;4.10;;
60368;SDS011;46208;44.634;10.492;2022-10-16T14:29:15;6.95;;;4.50;;
60368;SDS011;46208;44.634;10.492;2022-10-16T14:32:23;8.20;;;5.03;;
60368;SDS011;46208;44.634;10.492;2022-10-16T14:38:31;9.75;;;6.03;;
60368;SDS011;46208;44.634;10.492;2022-10-16T14:41:40;8.82;;;4.90;;
60368;SDS011;46208;44.634;10.492;2022-10-16T14:44:45;7.20;;;4.07;;
60368;SDS011;46208;44.634;10.492;2022-10-16T14:47:50;6.35;;;4.15;;
60368;SDS011;46208;44.634;10.492;2022-10-16T14:50:55;7.50;;;3.70;;
60368;SDS011;46208;44.634;10.492;2022-10-16T14:53:59;12.27;;;5.00;;
60368;SDS011;46208;44.634;10.492;2022-10-16T14:57:02;7.55;;;4.50;;
60368;SDS011;46208;44.634;10.492;2022-10-16T15:00:09;9.07;;;3.85;;
60368;SDS011;46208;44.634;10.492;2022-10-16T15:03:15;5.00;;;3.53;;
60368;SDS011;46208;44.634;10.492;2022-10-16T15:06:19;6.95;;;4.38;;
60368;SDS011;46208;44.634;10.492;2022-10-16T15:09:22;10.60;;;3.92;;
60368;SDS011;46208;44.634;10.492;2022-10-16T15:12:25;4.63;;;3.55;;
60368;SDS011;46208;44.634;10.492;2022-10-16T15:15:33;4.75;;;3.25;;
60368;SDS011;46208;44.634;10.492;2022-10-16T15:18:37;5.28;;;3.38;;
60368;SDS011;46208;44.634;10.492;2022-10-16T15:21:40;5.80;;;3.42;;
60368;SDS011;46208;44.634;10.492;2022-10-16T15:24:43;5.00;;;2.97;;
60368;SDS011;46208;44.634;10.492;2022-10-16T15:27:47;7.47;;;3.67;;
60368;SDS011;46208;44.634;10.492;2022-10-16T15:30:51;4.85;;;3.25;;
60368;SDS011;46208;44.634;10.492;2022-10-16T15:33:54;4.90;;;3.58;;
60368;SDS011;46208;44.634;10.492;2022-10-16T15:37:04;5.03;;;2.92;;
60368;SDS011;46208;44.634;10.492;2022-10-16T15:40:08;4.65;;;3.08;;
60368;SDS011;46208;44.634;10.492;2022-10-16T15:43:12;4.35;;;3.10;;
60368;SDS011;46208;44.634;10.492;2022-10-16T15:46:17;10.15;;;3.33;;
60368;SDS011;46208;44.634;10.492;2022-10-16T15:49:21;5.00;;;3.05;;
60368;SDS011;46208;44.634;10.492;2022-10-16T15:52:24;5.78;;;2.83;;
60368;SDS011;46208;44.634;10.492;2022-10-16T15:55:28;5.60;;;3.28;;
60368;SDS011;46208;44.634;10.492;2022-10-16T15:58:31;4.30;;;2.90;;
60368;SDS011;46208;44.634;10.492;2022-10-16T16:01:35;4.00;;;2.72;;
60368;SDS011;46208;44.634;10.492;2022-10-16T16:04:39;4.45;;;3.20;;
60368;SDS011;46208;44.634;10.492;2022-10-16T16:07:43;4.03;;;2.92;;
60368;SDS011;46208;44.634;10.492;2022-10-16T16:10:56;4.55;;;2.63;;
60368;SDS011;46208;44.634;10.492;2022-10-16T16:14:00;5.60;;;3.42;;
60368;SDS011;46208;44.634;10.492;2022-10-16T16:17:04;4.88;;;2.92;;
60368;SDS011;46208;44.634;10.492;2022-10-16T16:20:07;4.05;;;2.53;;
60368;SDS011;46208;44.634;10.492;2022-10-16T16:23:10;7.05;;;2.92;;
60368;SDS011;46208;44.634;10.492;2022-10-16T16:26:15;5.55;;;2.95;;
60368;SDS011;46208;44.634;10.492;2022-10-16T16:29:18;3.75;;;2.92;;
60368;SDS011;46208;44.634;10.492;2022-10-16T16:32:22;5.55;;;2.78;;
60368;SDS011;46208;44.634;10.492;2022-10-16T16:35:25;4.43;;;3.45;;
60368;SDS011;46208;44.634;10.492;2022-10-16T16:38:29;3.63;;;2.60;;
60368;SDS011;46208;44.634;10.492;2022-10-16T16:41:32;5.25;;;3.88;;
60368;SDS011;46208;44.634;10.492;2022-10-16T16:44:36;5.82;;;3.40;;
60368;SDS011;46208;44.634;10.492;2022-10-16T16:47:39;4.10;;;2.80;;
60368;SDS011;46208;44.634;10.492;2022-10-16T16:50:43;4.57;;;2.97;;
60368;SDS011;46208;44.634;10.492;2022-10-16T16:53:50;4.45;;;2.72;;
60368;SDS011;46208;44.634;10.492;2022-10-16T16:56:54;5.20;;;3.77;;
60368;SDS011;46208;44.634;10.492;2022-10-16T16:59:57;16.52;;;2.50;;
60368;SDS011;46208;44.634;10.492;2022-10-16T17:03:01;8.20;;;3.35;;
60368;SDS011;46208;44.634;10.492;2022-10-16T17:06:05;10.35;;;3.50;;
60368;SDS011;46208;44.634;10.492;2022-10-16T17:09:10;7.95;;;3.58;;
60368;SDS011;46208;44.634;10.492;2022-10-16T17:12:16;6.40;;;3.80;;
60368;SDS011;46208;44.634;10.492;2022-10-16T17:15:19;6.50;;;4.32;;
60368;SDS011;46208;44.634;10.492;2022-10-16T17:18:23;9.57;;;3.55;;
60368;SDS011;46208;44.634;10.492;2022-10-16T17:21:26;4.60;;;3.20;;
60368;SDS011;46208;44.634;10.492;2022-10-16T17:24:32;8.38;;;4.13;;
60368;SDS011;46208;44.634;10.492;2022-10-16T17:27:35;8.07;;;4.38;;
60368;SDS011;46208;44.634;10.492;2022-10-16T17:30:39;7.13;;;4.28;;
60368;SDS011;46208;44.634;10.492;2022-10-16T17:33:43;7.30;;;4.00;;
60368;SDS011;46208;44.634;10.492;2022-10-16T17:36:46;5.85;;;3.83;;
60368;SDS011;46208;44.634;10.492;2022-10-16T17:39:50;8.07;;;4.45;;
60368;SDS011;46208;44.634;10.492;2022-10-16T17:42:54;8.38;;;3.38;;
60368;SDS011;46208;44.634;10.492;2022-10-16T17:45:57;5.03;;;3.58;;
60368;SDS011;46208;44.634;10.492;2022-10-16T17:49:04;6.72;;;4.40;;
60368;SDS011;46208;44.634;10.492;2022-10-16T17:52:07;7.88;;;3.95;;
60368;SDS011;46208;44.634;10.492;2022-10-16T17:55:11;8.65;;;4.50;;
60368;SDS011;46208;44.634;10.492;2022-10-16T17:58:14;6.45;;;4.22;;
60368;SDS011;46208;44.634;10.492;2022-10-16T18:01:18;8.82;;;3.28;;
60368;SDS011;46208;44.634;10.492;2022-10-16T18:04:22;7.88;;;4.65;;
60368;SDS011;46208;44.634;10.492;2022-10-16T18:07:25;6.93;;;3.95;;
60368;SDS011;46208;44.634;10.492;2022-10-16T18:10:28;6.35;;;4.03;;
60368;SDS011;46208;44.634;10.492;2022-10-16T18:13:31;6.45;;;4.18;;
60368;SDS011;46208;44.634;10.492;2022-10-16T18:16:35;9.30;;;4.85;;
60368;SDS011;46208;44.634;10.492;2022-10-16T18:19:38;9.00;;;4.05;;
60368;SDS011;46208;44.634;10.492;2022-10-16T18:22:41;6.90;;;4.10;;
60368;SDS011;46208;44.634;10.492;2022-10-16T18:25:48;5.85;;;4.85;;
60368;SDS011;46208;44.634;10.492;2022-10-16T18:28:52;5.57;;;4.20;;
60368;SDS011;46208;44.634;10.492;2022-10-16T18:31:55;8.32;;;5.10;;
60368;SDS011;46208;44.634;10.492;2022-10-16T18:34:59;7.50;;;4.07;;
60368;SDS011;46208;44.634;10.492;2022-10-16T18:38:02;10.02;;;3.83;;
60368;SDS011;46208;44.634;10.492;2022-10-16T18:41:05;5.53;;;4.03;;
60368;SDS011;46208;44.634;10.492;2022-10-16T18:44:09;12.07;;;6.03;;
60368;SDS011;46208;44.634;10.492;2022-10-16T18:47:12;8.20;;;5.25;;
60368;SDS011;46208;44.634;10.492;2022-10-16T18:50:15;7.43;;;4.60;;
60368;SDS011;46208;44.634;10.492;2022-10-16T18:53:19;8.25;;;4.50;;
60368;SDS011;46208;44.634;10.492;2022-10-16T18:56:23;11.18;;;5.10;;
60368;SDS011;46208;44.634;10.492;2022-10-16T18:59:27;9.57;;;4.65;;
60368;SDS011;46208;44.634;10.492;2022-10-16T19:02:30;9.93;;;5.38;;
60368;SDS011;46208;44.634;10.492;2022-10-16T19:05:34;10.57;;;4.45;;
60368;SDS011;46208;44.634;10.492;2022-10-16T19:08:37;6.30;;;4.47;;
60368;SDS011;46208;44.634;10.492;2022-10-16T19:11:41;10.50;;;5.20;;
60368;SDS011;46208;44.634;10.492;2022-10-16T19:14:46;5.82;;;4.70;;
60368;SDS011;46208;44.634;10.492;2022-10-16T19:17:49;9.88;;;4.82;;
60368;SDS011;46208;44.634;10.492;2022-10-16T19:20:54;7.95;;;5.72;;
60368;SDS011;46208;44.634;10.492;2022-10-16T19:23:58;10.02;;;4.82;;
60368;SDS011;46208;44.634;10.492;2022-10-16T19:27:01;7.35;;;5.07;;
60368;SDS011;46208;44.634;10.492;2022-10-16T19:30:05;9.70;;;5.70;;
60368;SDS011;46208;44.634;10.492;2022-10-16T19:33:08;7.50;;;4.63;;
60368;SDS011;46208;44.634;10.492;2022-10-16T19:39:15;11.30;;;5.88;;
60368;SDS011;46208;44.634;10.492;2022-10-16T19:42:21;8.23;;;5.05;;
60368;SDS011;46208;44.634;10.492;2022-10-16T19:45:24;8.52;;;4.88;;
60368;SDS011;46208;44.634;10.492;2022-10-16T19:48:27;10.13;;;6.07;;
60368;SDS011;46208;44.634;10.492;2022-10-16T19:51:31;9.43;;;5.70;;
60368;SDS011;46208;44.634;10.492;2022-10-16T19:54:34;8.93;;;5.70;;
60368;SDS011;46208;44.634;10.492;2022-10-16T19:57:38;19.88;;;6.07;;
60368;SDS011;46208;44.634;10.492;2022-10-16T20:00:41;10.82;;;6.32;;
60368;SDS011;46208;44.634;10.492;2022-10-16T20:03:45;12.00;;;6.80;;
60368;SDS011;46208;44.634;10.492;2022-10-16T20:06:49;13.27;;;6.25;;
60368;SDS011;46208;44.634;10.492;2022-10-16T20:09:52;11.57;;;5.60;;
60368;SDS011;46208;44.634;10.492;2022-10-16T20:12:56;10.05;;;4.88;;